sensor_id;sensor_type;location;lat;lon;timestamp;P1;durP1;ratioP1;P2;durP2;ratioP2
10248;SDS011;5169;50.560;9.714;2023-03-01T00:01:45;10.77;;;8.03;;
10248;SDS011;5169;50.560;9.714;2023-03-01T00:04:11;10.40;;;7.87;;
10248;SDS011;5169;50.560;9.714;2023-03-01T00:06:37;10.17;;;7.53;;
10248;SDS011;5169;50.560;9.714;2023-03-01T00:09:03;10.00;;;7.63;;
10248;SDS011;5169;50.560;9.714;2023-03-01T00:11:32;11.13;;;8.70;;
10248;SDS011;5169;50.560;9.714;2023-03-01T00:13:59;10.27;;;8.07;;
10248;SDS011;5169;50.560;9.714;2023-03-01T00:18:59;10.67;;;8.60;;
10248;SDS011;5169;50.560;9.714;2023-03-01T00:21:25;12.77;;;8.60;;
10248;SDS011;5169;50.560;9.714;2023-03-01T00:23:54;11.73;;;8.90;;
10248;SDS011;5169;50.560;9.714;2023-03-01T00:26:21;13.33;;;8.33;;
10248;SDS011;5169;50.560;9.714;2023-03-01T00:28:51;13.37;;;8.90;;
10248;SDS011;5169;50.560;9.714;2023-03-01T00:31:22;11.87;;;8.50;;
10248;SDS011;5169;50.560;9.714;2023-03-01T00:33:52;10.40;;;8.03;;
10248;SDS011;5169;50.560;9.714;2023-03-01T00:36:22;10.60;;;8.27;;
10248;SDS011;5169;50.560;9.714;2023-03-01T00:38:52;11.87;;;8.17;;
10248;SDS011;5169;50.560;9.714;2023-03-01T00:41:20;11.07;;;8.37;;
10248;SDS011;5169;50.560;9.714;2023-03-01T00:43:51;10.03;;;8.33;;
10248;SDS011;5169;50.560;9.714;2023-03-01T00:46:20;11.77;;;8.30;;
10248;SDS011;5169;50.560;9.714;2023-03-01T00:48:51;11.13;;;8.07;;
10248;SDS011;5169;50.560;9.714;2023-03-01T00:51:20;12.07;;;8.40;;
10248;SDS011;5169;50.560;9.714;2023-03-01T00:53:51;10.60;;;8.23;;
10248;SDS011;5169;50.560;9.714;2023-03-01T00:56:18;10.90;;;8.20;;
10248;SDS011;5169;50.560;9.714;2023-03-01T00:58:44;10.50;;;8.23;;
10248;SDS011;5169;50.560;9.714;2023-03-01T01:01:11;10.60;;;8.27;;
10248;SDS011;5169;50.560;9.714;2023-03-01T01:03:48;10.87;;;8.30;;
10248;SDS011;5169;50.560;9.714;2023-03-01T01:06:29;12.77;;;8.83;;
10248;SDS011;5169;50.560;9.714;2023-03-01T01:08:56;13.60;;;8.67;;
10248;SDS011;5169;50.560;9.714;2023-03-01T01:11:23;11.30;;;8.13;;
10248;SDS011;5169;50.560;9.714;2023-03-01T01:13:56;13.90;;;8.53;;
10248;SDS011;5169;50.560;9.714;2023-03-01T01:16:22;11.77;;;9.37;;
10248;SDS011;5169;50.560;9.714;2023-03-01T01:18:55;12.13;;;8.50;;
10248;SDS011;5169;50.560;9.714;2023-03-01T01:21:23;11.10;;;8.23;;
10248;SDS011;5169;50.560;9.714;2023-03-01T01:23:55;11.40;;;8.13;;
10248;SDS011;5169;50.560;9.714;2023-03-01T01:26:28;11.77;;;7.83;;
10248;SDS011;5169;50.560;9.714;2023-03-01T01:28:58;10.93;;;8.20;;
10248;SDS011;5169;50.560;9.714;2023-03-01T01:31:25;11.17;;;8.33;;
10248;SDS011;5169;50.560;9.714;2023-03-01T01:33:56;14.07;;;8.23;;
10248;SDS011;5169;50.560;9.714;2023-03-01T01:36:25;11.70;;;8.43;;
10248;SDS011;5169;50.560;9.714;2023-03-01T01:38:51;12.37;;;8.23;;
10248;SDS011;5169;50.560;9.714;2023-03-01T01:41:17;12.70;;;8.50;;
10248;SDS011;5169;50.560;9.714;2023-03-01T01:43:44;11.87;;;8.33;;
10248;SDS011;5169;50.560;9.714;2023-03-01T01:49:00;10.43;;;7.87;;
10248;SDS011;5169;50.560;9.714;2023-03-01T01:51:32;10.40;;;8.27;;
10248;SDS011;5169;50.560;9.714;2023-03-01T01:54:04;12.17;;;8.50;;
10248;SDS011;5169;50.560;9.714;2023-03-01T01:57:00;10.43;;;8.47;;
10248;SDS011;5169;50.560;9.714;2023-03-01T01:59:31;13.80;;;8.10;;
10248;SDS011;5169;50.560;9.714;2023-03-01T02:01:59;11.77;;;8.10;;
10248;SDS011;5169;50.560;9.714;2023-03-01T02:04:29;11.57;;;8.40;;
10248;SDS011;5169;50.560;9.714;2023-03-01T02:06:58;11.07;;;8.63;;
10248;SDS011;5169;50.560;9.714;2023-03-01T02:09:39;12.90;;;8.60;;
10248;SDS011;5169;50.560;9.714;2023-03-01T02:12:05;11.37;;;8.50;;
10248;SDS011;5169;50.560;9.714;2023-03-01T02:14:32;9.00;;;7.47;;
10248;SDS011;5169;50.560;9.714;2023-03-01T02:17:03;11.23;;;8.23;;
10248;SDS011;5169;50.560;9.714;2023-03-01T02:22:43;13.47;;;8.50;;
10248;SDS011;5169;50.560;9.714;2023-03-01T02:30:22;11.90;;;8.50;;
10248;SDS011;5169;50.560;9.714;2023-03-01T02:32:57;12.67;;;8.13;;
10248;SDS011;5169;50.560;9.714;2023-03-01T02:35:30;11.20;;;8.13;;
10248;SDS011;5169;50.560;9.714;2023-03-01T02:38:06;13.30;;;8.43;;
10248;SDS011;5169;50.560;9.714;2023-03-01T02:40:41;12.47;;;8.43;;
10248;SDS011;5169;50.560;9.714;2023-03-01T02:43:08;11.73;;;8.83;;
10248;SDS011;5169;50.560;9.714;2023-03-01T02:45:37;12.97;;;8.40;;
10248;SDS011;5169;50.560;9.714;2023-03-01T02:48:11;12.60;;;8.80;;
10248;SDS011;5169;50.560;9.714;2023-03-01T02:51:01;11.13;;;8.33;;
10248;SDS011;5169;50.560;9.714;2023-03-01T02:56:30;11.57;;;8.47;;
10248;SDS011;5169;50.560;9.714;2023-03-01T02:59:03;12.03;;;8.50;;
10248;SDS011;5169;50.560;9.714;2023-03-01T03:01:33;12.60;;;8.13;;
10248;SDS011;5169;50.560;9.714;2023-03-01T03:04:11;11.83;;;8.23;;
10248;SDS011;5169;50.560;9.714;2023-03-01T03:06:50;11.00;;;7.70;;
10248;SDS011;5169;50.560;9.714;2023-03-01T03:09:24;12.17;;;8.40;;
10248;SDS011;5169;50.560;9.714;2023-03-01T03:11:52;11.63;;;8.40;;
10248;SDS011;5169;50.560;9.714;2023-03-01T03:14:17;11.80;;;8.43;;
10248;SDS011;5169;50.560;9.714;2023-03-01T03:16:48;10.73;;;7.93;;
10248;SDS011;5169;50.560;9.714;2023-03-01T03:19:15;9.93;;;7.73;;
10248;SDS011;5169;50.560;9.714;2023-03-01T03:21:42;10.17;;;7.50;;
10248;SDS011;5169;50.560;9.714;2023-03-01T03:24:11;10.40;;;7.57;;
10248;SDS011;5169;50.560;9.714;2023-03-01T03:26:36;9.97;;;7.77;;
10248;SDS011;5169;50.560;9.714;2023-03-01T03:29:02;11.37;;;7.80;;
10248;SDS011;5169;50.560;9.714;2023-03-01T03:31:28;12.47;;;8.30;;
10248;SDS011;5169;50.560;9.714;2023-03-01T03:34:03;11.37;;;7.83;;
10248;SDS011;5169;50.560;9.714;2023-03-01T03:36:28;10.83;;;7.97;;
10248;SDS011;5169;50.560;9.714;2023-03-01T03:38:54;10.87;;;8.03;;
10248;SDS011;5169;50.560;9.714;2023-03-01T03:41:24;11.20;;;7.77;;
10248;SDS011;5169;50.560;9.714;2023-03-01T03:43:50;11.23;;;8.30;;
10248;SDS011;5169;50.560;9.714;2023-03-01T03:46:17;12.03;;;7.80;;
10248;SDS011;5169;50.560;9.714;2023-03-01T03:48:43;11.73;;;8.47;;
10248;SDS011;5169;50.560;9.714;2023-03-01T03:51:15;9.57;;;7.97;;
10248;SDS011;5169;50.560;9.714;2023-03-01T03:53:44;11.87;;;8.23;;
10248;SDS011;5169;50.560;9.714;2023-03-01T03:56:16;9.70;;;7.70;;
10248;SDS011;5169;50.560;9.714;2023-03-01T03:58:42;10.80;;;7.57;;
10248;SDS011;5169;50.560;9.714;2023-03-01T04:01:07;11.00;;;7.20;;
10248;SDS011;5169;50.560;9.714;2023-03-01T04:03:38;10.47;;;7.50;;
10248;SDS011;5169;50.560;9.714;2023-03-01T04:06:03;11.17;;;8.37;;
10248;SDS011;5169;50.560;9.714;2023-03-01T04:08:30;11.83;;;7.93;;
10248;SDS011;5169;50.560;9.714;2023-03-01T04:10:59;10.07;;;7.73;;
10248;SDS011;5169;50.560;9.714;2023-03-01T04:13:48;10.90;;;7.93;;
10248;SDS011;5169;50.560;9.714;2023-03-01T04:16:17;11.27;;;7.97;;
10248;SDS011;5169;50.560;9.714;2023-03-01T04:18:43;10.40;;;8.00;;
10248;SDS011;5169;50.560;9.714;2023-03-01T04:21:09;11.80;;;8.30;;
10248;SDS011;5169;50.560;9.714;2023-03-01T04:23:36;10.93;;;8.17;;
10248;SDS011;5169;50.560;9.714;2023-03-01T04:26:09;9.93;;;7.53;;
10248;SDS011;5169;50.560;9.714;2023-03-01T04:28:43;13.90;;;8.07;;
10248;SDS011;5169;50.560;9.714;2023-03-01T04:31:11;14.10;;;8.70;;
10248;SDS011;5169;50.560;9.714;2023-03-01T04:33:44;11.07;;;8.03;;
10248;SDS011;5169;50.560;9.714;2023-03-01T04:36:24;12.20;;;8.40;;
10248;SDS011;5169;50.560;9.714;2023-03-01T04:38:52;14.67;;;8.77;;
10248;SDS011;5169;50.560;9.714;2023-03-01T04:41:22;11.43;;;8.60;;
10248;SDS011;5169;50.560;9.714;2023-03-01T04:43:51;13.00;;;9.30;;
10248;SDS011;5169;50.560;9.714;2023-03-01T04:46:21;11.93;;;8.27;;
10248;SDS011;5169;50.560;9.714;2023-03-01T04:48:47;13.20;;;8.23;;
10248;SDS011;5169;50.560;9.714;2023-03-01T04:51:16;10.77;;;8.23;;
10248;SDS011;5169;50.560;9.714;2023-03-01T04:53:50;11.30;;;8.47;;
10248;SDS011;5169;50.560;9.714;2023-03-01T04:56:16;13.10;;;8.67;;
10248;SDS011;5169;50.560;9.714;2023-03-01T04:58:48;13.07;;;8.57;;
10248;SDS011;5169;50.560;9.714;2023-03-01T05:01:20;11.77;;;8.57;;
10248;SDS011;5169;50.560;9.714;2023-03-01T05:03:52;11.40;;;7.50;;
10248;SDS011;5169;50.560;9.714;2023-03-01T05:06:18;10.97;;;8.00;;
10248;SDS011;5169;50.560;9.714;2023-03-01T05:08:55;12.43;;;8.50;;
10248;SDS011;5169;50.560;9.714;2023-03-01T05:11:27;16.03;;;8.40;;
10248;SDS011;5169;50.560;9.714;2023-03-01T05:14:00;11.77;;;8.03;;
10248;SDS011;5169;50.560;9.714;2023-03-01T05:16:32;12.00;;;8.30;;
10248;SDS011;5169;50.560;9.714;2023-03-01T05:19:04;12.17;;;8.07;;
10248;SDS011;5169;50.560;9.714;2023-03-01T05:21:37;11.53;;;8.37;;
10248;SDS011;5169;50.560;9.714;2023-03-01T05:24:26;12.13;;;8.50;;
10248;SDS011;5169;50.560;9.714;2023-03-01T05:26:52;12.30;;;8.53;;
10248;SDS011;5169;50.560;9.714;2023-03-01T05:29:18;11.50;;;8.63;;
10248;SDS011;5169;50.560;9.714;2023-03-01T05:31:50;12.23;;;8.50;;
10248;SDS011;5169;50.560;9.714;2023-03-01T05:34:30;11.30;;;8.70;;
10248;SDS011;5169;50.560;9.714;2023-03-01T05:37:04;14.40;;;9.07;;
10248;SDS011;5169;50.560;9.714;2023-03-01T05:39:30;12.20;;;9.57;;
10248;SDS011;5169;50.560;9.714;2023-03-01T05:41:57;13.17;;;9.77;;
10248;SDS011;5169;50.560;9.714;2023-03-01T05:44:28;17.70;;;9.87;;
10248;SDS011;5169;50.560;9.714;2023-03-01T05:46:55;13.97;;;10.03;;
10248;SDS011;5169;50.560;9.714;2023-03-01T05:49:25;14.20;;;10.03;;
10248;SDS011;5169;50.560;9.714;2023-03-01T05:51:53;12.90;;;9.40;;
10248;SDS011;5169;50.560;9.714;2023-03-01T05:54:20;14.67;;;9.77;;
10248;SDS011;5169;50.560;9.714;2023-03-01T05:56:49;16.20;;;9.90;;
10248;SDS011;5169;50.560;9.714;2023-03-01T06:05:42;16.80;;;10.10;;
10248;SDS011;5169;50.560;9.714;2023-03-01T06:08:09;14.47;;;10.00;;
10248;SDS011;5169;50.560;9.714;2023-03-01T06:10:41;13.17;;;9.47;;
10248;SDS011;5169;50.560;9.714;2023-03-01T06:13:07;15.10;;;10.70;;
10248;SDS011;5169;50.560;9.714;2023-03-01T06:15:32;12.43;;;10.23;;
10248;SDS011;5169;50.560;9.714;2023-03-01T06:18:08;15.70;;;10.23;;
10248;SDS011;5169;50.560;9.714;2023-03-01T06:20:39;14.97;;;9.77;;
10248;SDS011;5169;50.560;9.714;2023-03-01T06:23:05;15.10;;;10.00;;
10248;SDS011;5169;50.560;9.714;2023-03-01T06:25:30;15.60;;;10.40;;
10248;SDS011;5169;50.560;9.714;2023-03-01T06:27:57;15.00;;;10.47;;
10248;SDS011;5169;50.560;9.714;2023-03-01T06:30:30;13.43;;;9.70;;
10248;SDS011;5169;50.560;9.714;2023-03-01T06:32:58;15.93;;;10.53;;
10248;SDS011;5169;50.560;9.714;2023-03-01T06:35:27;13.63;;;9.87;;
10248;SDS011;5169;50.560;9.714;2023-03-01T06:37:54;14.00;;;10.50;;
10248;SDS011;5169;50.560;9.714;2023-03-01T06:40:20;17.80;;;10.97;;
10248;SDS011;5169;50.560;9.714;2023-03-01T06:42:55;13.47;;;10.13;;
10248;SDS011;5169;50.560;9.714;2023-03-01T06:45:27;15.30;;;10.27;;
10248;SDS011;5169;50.560;9.714;2023-03-01T06:48:04;16.70;;;10.97;;
10248;SDS011;5169;50.560;9.714;2023-03-01T06:50:31;14.33;;;9.93;;
10248;SDS011;5169;50.560;9.714;2023-03-01T06:53:08;17.87;;;9.97;;
10248;SDS011;5169;50.560;9.714;2023-03-01T06:55:44;19.53;;;10.33;;
10248;SDS011;5169;50.560;9.714;2023-03-01T06:58:09;14.10;;;10.20;;
10248;SDS011;5169;50.560;9.714;2023-03-01T07:00:42;14.73;;;10.23;;
10248;SDS011;5169;50.560;9.714;2023-03-01T07:03:08;17.63;;;10.80;;
10248;SDS011;5169;50.560;9.714;2023-03-01T07:05:42;15.70;;;10.20;;
10248;SDS011;5169;50.560;9.714;2023-03-01T07:08:10;14.87;;;10.37;;
10248;SDS011;5169;50.560;9.714;2023-03-01T07:10:42;14.47;;;10.53;;
10248;SDS011;5169;50.560;9.714;2023-03-01T07:13:10;14.90;;;10.30;;
10248;SDS011;5169;50.560;9.714;2023-03-01T07:15:35;15.53;;;10.97;;
10248;SDS011;5169;50.560;9.714;2023-03-01T07:18:07;13.70;;;9.97;;
10248;SDS011;5169;50.560;9.714;2023-03-01T07:20:33;14.40;;;10.13;;
10248;SDS011;5169;50.560;9.714;2023-03-01T07:22:59;14.83;;;10.93;;
10248;SDS011;5169;50.560;9.714;2023-03-01T07:25:29;17.13;;;10.10;;
10248;SDS011;5169;50.560;9.714;2023-03-01T07:27:54;15.17;;;10.37;;
10248;SDS011;5169;50.560;9.714;2023-03-01T07:30:20;16.43;;;10.43;;
10248;SDS011;5169;50.560;9.714;2023-03-01T07:32:47;15.77;;;10.50;;
10248;SDS011;5169;50.560;9.714;2023-03-01T07:35:15;14.50;;;10.43;;
10248;SDS011;5169;50.560;9.714;2023-03-01T07:37:41;14.13;;;9.03;;
10248;SDS011;5169;50.560;9.714;2023-03-01T07:40:07;15.20;;;10.47;;
10248;SDS011;5169;50.560;9.714;2023-03-01T07:42:33;15.47;;;10.37;;
10248;SDS011;5169;50.560;9.714;2023-03-01T07:44:59;13.30;;;8.93;;
10248;SDS011;5169;50.560;9.714;2023-03-01T07:47:31;12.67;;;9.10;;
10248;SDS011;5169;50.560;9.714;2023-03-01T07:50:03;12.27;;;8.70;;
10248;SDS011;5169;50.560;9.714;2023-03-01T07:52:30;12.67;;;9.50;;
10248;SDS011;5169;50.560;9.714;2023-03-01T07:54:56;13.77;;;9.20;;
10248;SDS011;5169;50.560;9.714;2023-03-01T07:57:23;13.00;;;9.63;;
10248;SDS011;5169;50.560;9.714;2023-03-01T07:59:51;13.17;;;9.87;;
10248;SDS011;5169;50.560;9.714;2023-03-01T08:02:19;12.47;;;9.30;;
10248;SDS011;5169;50.560;9.714;2023-03-01T08:04:45;13.00;;;9.43;;
10248;SDS011;5169;50.560;9.714;2023-03-01T08:07:11;13.13;;;9.30;;
10248;SDS011;5169;50.560;9.714;2023-03-01T08:09:43;12.90;;;8.83;;
10248;SDS011;5169;50.560;9.714;2023-03-01T08:12:08;13.13;;;8.53;;
10248;SDS011;5169;50.560;9.714;2023-03-01T08:14:34;13.03;;;9.00;;
10248;SDS011;5169;50.560;9.714;2023-03-01T08:17:00;13.63;;;9.43;;
10248;SDS011;5169;50.560;9.714;2023-03-01T08:19:30;12.93;;;9.37;;
10248;SDS011;5169;50.560;9.714;2023-03-01T08:21:55;13.87;;;9.50;;
10248;SDS011;5169;50.560;9.714;2023-03-01T08:24:23;11.97;;;9.23;;
10248;SDS011;5169;50.560;9.714;2023-03-01T08:26:54;14.27;;;8.90;;
10248;SDS011;5169;50.560;9.714;2023-03-01T08:29:20;12.70;;;8.90;;
10248;SDS011;5169;50.560;9.714;2023-03-01T08:31:47;12.23;;;8.90;;
10248;SDS011;5169;50.560;9.714;2023-03-01T08:34:16;15.20;;;9.03;;
10248;SDS011;5169;50.560;9.714;2023-03-01T08:36:47;12.77;;;9.40;;
10248;SDS011;5169;50.560;9.714;2023-03-01T08:39:19;11.87;;;9.13;;
10248;SDS011;5169;50.560;9.714;2023-03-01T08:41:47;12.30;;;8.47;;
10248;SDS011;5169;50.560;9.714;2023-03-01T08:44:16;12.30;;;9.03;;
10248;SDS011;5169;50.560;9.714;2023-03-01T08:46:42;13.83;;;10.17;;
10248;SDS011;5169;50.560;9.714;2023-03-01T08:49:16;13.20;;;9.67;;
10248;SDS011;5169;50.560;9.714;2023-03-01T08:51:44;11.73;;;8.37;;
10248;SDS011;5169;50.560;9.714;2023-03-01T08:54:17;11.47;;;9.17;;
10248;SDS011;5169;50.560;9.714;2023-03-01T08:56:52;10.77;;;7.97;;
10248;SDS011;5169;50.560;9.714;2023-03-01T08:59:18;11.17;;;7.87;;
10248;SDS011;5169;50.560;9.714;2023-03-01T09:01:44;10.23;;;7.27;;
10248;SDS011;5169;50.560;9.714;2023-03-01T09:04:11;9.50;;;7.67;;
10248;SDS011;5169;50.560;9.714;2023-03-01T09:06:40;10.13;;;7.27;;
10248;SDS011;5169;50.560;9.714;2023-03-01T09:09:07;11.23;;;8.27;;
10248;SDS011;5169;50.560;9.714;2023-03-01T09:11:45;9.77;;;7.33;;
10248;SDS011;5169;50.560;9.714;2023-03-01T09:14:12;9.53;;;7.43;;
10248;SDS011;5169;50.560;9.714;2023-03-01T09:16:46;9.37;;;7.67;;
10248;SDS011;5169;50.560;9.714;2023-03-01T09:19:12;10.60;;;7.80;;
10248;SDS011;5169;50.560;9.714;2023-03-01T09:21:44;12.17;;;7.37;;
10248;SDS011;5169;50.560;9.714;2023-03-01T09:24:22;9.13;;;6.43;;
10248;SDS011;5169;50.560;9.714;2023-03-01T09:26:53;10.07;;;7.83;;
10248;SDS011;5169;50.560;9.714;2023-03-01T09:29:20;11.20;;;8.07;;
10248;SDS011;5169;50.560;9.714;2023-03-01T09:31:46;12.27;;;8.50;;
10248;SDS011;5169;50.560;9.714;2023-03-01T09:34:12;11.33;;;8.23;;
10248;SDS011;5169;50.560;9.714;2023-03-01T09:36:47;11.03;;;8.00;;
10248;SDS011;5169;50.560;9.714;2023-03-01T09:39:20;10.60;;;7.67;;
10248;SDS011;5169;50.560;9.714;2023-03-01T09:46:56;13.53;;;8.67;;
10248;SDS011;5169;50.560;9.714;2023-03-01T09:49:25;12.17;;;8.03;;
10248;SDS011;5169;50.560;9.714;2023-03-01T09:52:21;11.37;;;8.77;;
10248;SDS011;5169;50.560;9.714;2023-03-01T09:55:20;13.57;;;8.53;;
10248;SDS011;5169;50.560;9.714;2023-03-01T09:58:47;9.87;;;7.27;;
10248;SDS011;5169;50.560;9.714;2023-03-01T10:04:00;11.77;;;9.20;;
10248;SDS011;5169;50.560;9.714;2023-03-01T10:06:59;11.80;;;9.27;;
10248;SDS011;5169;50.560;9.714;2023-03-01T10:09:36;12.47;;;9.70;;
10248;SDS011;5169;50.560;9.714;2023-03-01T10:12:19;12.73;;;8.70;;
10248;SDS011;5169;50.560;9.714;2023-03-01T10:15:02;11.27;;;8.10;;
10248;SDS011;5169;50.560;9.714;2023-03-01T10:20:41;11.17;;;8.37;;
10248;SDS011;5169;50.560;9.714;2023-03-01T10:23:22;12.50;;;8.70;;
10248;SDS011;5169;50.560;9.714;2023-03-01T10:31:20;11.57;;;9.03;;
10248;SDS011;5169;50.560;9.714;2023-03-01T10:34:02;10.97;;;8.30;;
10248;SDS011;5169;50.560;9.714;2023-03-01T10:36:49;11.37;;;7.90;;
10248;SDS011;5169;50.560;9.714;2023-03-01T10:39:27;11.07;;;8.97;;
10248;SDS011;5169;50.560;9.714;2023-03-01T10:44:36;12.07;;;9.00;;
10248;SDS011;5169;50.560;9.714;2023-03-01T10:47:15;12.50;;;9.60;;
10248;SDS011;5169;50.560;9.714;2023-03-01T10:52:56;14.13;;;9.73;;
10248;SDS011;5169;50.560;9.714;2023-03-01T10:55:28;10.63;;;9.27;;
10248;SDS011;5169;50.560;9.714;2023-03-01T10:58:19;14.70;;;9.47;;
10248;SDS011;5169;50.560;9.714;2023-03-01T11:00:56;12.93;;;9.23;;
10248;SDS011;5169;50.560;9.714;2023-03-01T11:03:25;11.93;;;9.33;;
10248;SDS011;5169;50.560;9.714;2023-03-01T11:08:50;11.47;;;9.50;;
10248;SDS011;5169;50.560;9.714;2023-03-01T11:11:32;12.50;;;9.63;;
10248;SDS011;5169;50.560;9.714;2023-03-01T11:16:59;9.57;;;8.50;;
10248;SDS011;5169;50.560;9.714;2023-03-01T11:22:46;10.93;;;9.27;;
10248;SDS011;5169;50.560;9.714;2023-03-01T11:25:15;13.70;;;10.13;;
10248;SDS011;5169;50.560;9.714;2023-03-01T11:27:49;14.97;;;9.37;;
10248;SDS011;5169;50.560;9.714;2023-03-01T11:30:20;11.50;;;9.10;;
10248;SDS011;5169;50.560;9.714;2023-03-01T11:33:16;11.40;;;9.33;;
10248;SDS011;5169;50.560;9.714;2023-03-01T11:35:50;10.83;;;9.30;;
10248;SDS011;5169;50.560;9.714;2023-03-01T11:38:38;12.77;;;9.80;;
10248;SDS011;5169;50.560;9.714;2023-03-01T11:52:33;12.63;;;10.33;;
10248;SDS011;5169;50.560;9.714;2023-03-01T12:00:59;12.63;;;10.30;;
10248;SDS011;5169;50.560;9.714;2023-03-01T12:24:05;11.27;;;9.20;;
10248;SDS011;5169;50.560;9.714;2023-03-01T12:27:07;12.10;;;9.57;;
10248;SDS011;5169;50.560;9.714;2023-03-01T12:49:45;11.70;;;9.80;;
10248;SDS011;5169;50.560;9.714;2023-03-01T12:52:42;9.80;;;8.80;;
10248;SDS011;5169;50.560;9.714;2023-03-01T12:55:34;11.93;;;9.50;;
10248;SDS011;5169;50.560;9.714;2023-03-01T12:58:24;12.80;;;9.60;;
10248;SDS011;5169;50.560;9.714;2023-03-01T13:01:05;12.27;;;9.10;;
10248;SDS011;5169;50.560;9.714;2023-03-01T13:11:55;11.17;;;9.00;;
10248;SDS011;5169;50.560;9.714;2023-03-01T13:16:56;12.17;;;9.53;;
10248;SDS011;5169;50.560;9.714;2023-03-01T13:19:23;11.67;;;9.70;;
10248;SDS011;5169;50.560;9.714;2023-03-01T13:21:57;12.30;;;9.83;;
10248;SDS011;5169;50.560;9.714;2023-03-01T13:24:42;12.87;;;9.33;;
10248;SDS011;5169;50.560;9.714;2023-03-01T13:29:58;12.10;;;10.00;;
10248;SDS011;5169;50.560;9.714;2023-03-01T13:32:41;11.97;;;9.87;;
10248;SDS011;5169;50.560;9.714;2023-03-01T13:37:42;12.40;;;9.80;;
10248;SDS011;5169;50.560;9.714;2023-03-01T13:42:42;11.93;;;9.83;;
10248;SDS011;5169;50.560;9.714;2023-03-01T13:45:34;12.77;;;9.70;;
10248;SDS011;5169;50.560;9.714;2023-03-01T13:48:15;12.47;;;10.07;;
10248;SDS011;5169;50.560;9.714;2023-03-01T13:50:46;14.20;;;9.90;;
10248;SDS011;5169;50.560;9.714;2023-03-01T13:53:45;13.57;;;9.97;;
10248;SDS011;5169;50.560;9.714;2023-03-01T13:56:16;12.67;;;9.80;;
10248;SDS011;5169;50.560;9.714;2023-03-01T13:58:53;14.50;;;9.93;;
10248;SDS011;5169;50.560;9.714;2023-03-01T14:01:31;13.80;;;9.30;;
10248;SDS011;5169;50.560;9.714;2023-03-01T14:03:59;15.57;;;10.70;;
10248;SDS011;5169;50.560;9.714;2023-03-01T14:06:43;13.43;;;9.90;;
10248;SDS011;5169;50.560;9.714;2023-03-01T14:09:19;12.00;;;9.73;;
10248;SDS011;5169;50.560;9.714;2023-03-01T14:21:17;13.10;;;9.13;;
10248;SDS011;5169;50.560;9.714;2023-03-01T14:23:42;14.07;;;10.00;;
10248;SDS011;5169;50.560;9.714;2023-03-01T14:26:09;13.00;;;9.47;;
10248;SDS011;5169;50.560;9.714;2023-03-01T14:28:40;12.97;;;9.60;;
10248;SDS011;5169;50.560;9.714;2023-03-01T14:33:55;10.53;;;8.13;;
10248;SDS011;5169;50.560;9.714;2023-03-01T14:36:33;14.03;;;9.20;;
10248;SDS011;5169;50.560;9.714;2023-03-01T14:38:59;12.37;;;8.67;;
10248;SDS011;5169;50.560;9.714;2023-03-01T14:41:41;14.27;;;9.67;;
10248;SDS011;5169;50.560;9.714;2023-03-01T14:44:07;11.73;;;8.17;;
10248;SDS011;5169;50.560;9.714;2023-03-01T14:46:44;10.27;;;8.37;;
10248;SDS011;5169;50.560;9.714;2023-03-01T14:49:12;12.00;;;8.67;;
10248;SDS011;5169;50.560;9.714;2023-03-01T14:52:07;12.20;;;9.07;;
10248;SDS011;5169;50.560;9.714;2023-03-01T14:54:42;11.47;;;8.53;;
10248;SDS011;5169;50.560;9.714;2023-03-01T14:57:13;10.90;;;8.03;;
10248;SDS011;5169;50.560;9.714;2023-03-01T14:59:46;11.00;;;8.73;;
10248;SDS011;5169;50.560;9.714;2023-03-01T15:02:22;12.47;;;8.90;;
10248;SDS011;5169;50.560;9.714;2023-03-01T15:04:54;12.17;;;8.97;;
10248;SDS011;5169;50.560;9.714;2023-03-01T15:07:22;12.23;;;9.10;;
10248;SDS011;5169;50.560;9.714;2023-03-01T15:09:56;12.57;;;8.70;;
10248;SDS011;5169;50.560;9.714;2023-03-01T15:18:34;10.33;;;8.33;;
10248;SDS011;5169;50.560;9.714;2023-03-01T15:20:54;11.03;;;8.30;;
10248;SDS011;5169;50.560;9.714;2023-03-01T15:23:25;11.50;;;8.40;;
10248;SDS011;5169;50.560;9.714;2023-03-01T15:25:57;12.07;;;9.23;;
10248;SDS011;5169;50.560;9.714;2023-03-01T15:28:33;13.93;;;8.90;;
10248;SDS011;5169;50.560;9.714;2023-03-01T15:33:47;14.70;;;8.83;;
10248;SDS011;5169;50.560;9.714;2023-03-01T15:45:09;11.07;;;8.37;;
10248;SDS011;5169;50.560;9.714;2023-03-01T15:47:59;10.77;;;7.83;;
10248;SDS011;5169;50.560;9.714;2023-03-01T15:50:53;11.67;;;8.20;;
10248;SDS011;5169;50.560;9.714;2023-03-01T15:53:23;11.43;;;7.90;;
10248;SDS011;5169;50.560;9.714;2023-03-01T15:55:49;12.23;;;8.90;;
10248;SDS011;5169;50.560;9.714;2023-03-01T15:58:24;11.57;;;8.57;;
10248;SDS011;5169;50.560;9.714;2023-03-01T16:00:56;10.07;;;7.83;;
10248;SDS011;5169;50.560;9.714;2023-03-01T16:03:23;10.47;;;8.13;;
10248;SDS011;5169;50.560;9.714;2023-03-01T16:05:53;11.47;;;8.20;;
10248;SDS011;5169;50.560;9.714;2023-03-01T16:08:18;10.33;;;7.93;;
10248;SDS011;5169;50.560;9.714;2023-03-01T16:10:44;11.67;;;7.90;;
10248;SDS011;5169;50.560;9.714;2023-03-01T16:13:11;10.93;;;7.50;;
10248;SDS011;5169;50.560;9.714;2023-03-01T16:15:40;11.80;;;8.20;;
10248;SDS011;5169;50.560;9.714;2023-03-01T16:18:08;12.70;;;7.93;;
10248;SDS011;5169;50.560;9.714;2023-03-01T16:20:39;9.77;;;7.77;;
10248;SDS011;5169;50.560;9.714;2023-03-01T16:23:08;11.53;;;8.00;;
10248;SDS011;5169;50.560;9.714;2023-03-01T16:25:40;10.23;;;7.67;;
10248;SDS011;5169;50.560;9.714;2023-03-01T16:28:08;9.37;;;7.50;;
10248;SDS011;5169;50.560;9.714;2023-03-01T16:30:35;10.30;;;7.90;;
10248;SDS011;5169;50.560;9.714;2023-03-01T16:33:10;9.37;;;7.57;;
10248;SDS011;5169;50.560;9.714;2023-03-01T16:35:45;11.00;;;7.77;;
10248;SDS011;5169;50.560;9.714;2023-03-01T16:38:10;10.93;;;7.70;;
10248;SDS011;5169;50.560;9.714;2023-03-01T16:40:36;15.10;;;8.33;;
10248;SDS011;5169;50.560;9.714;2023-03-01T16:43:12;9.93;;;7.13;;
10248;SDS011;5169;50.560;9.714;2023-03-01T16:45:40;11.87;;;8.17;;
10248;SDS011;5169;50.560;9.714;2023-03-01T16:48:09;11.93;;;8.20;;
10248;SDS011;5169;50.560;9.714;2023-03-01T16:50:43;12.20;;;8.10;;
10248;SDS011;5169;50.560;9.714;2023-03-01T16:53:09;11.43;;;8.23;;
10248;SDS011;5169;50.560;9.714;2023-03-01T16:55:35;10.53;;;7.97;;
10248;SDS011;5169;50.560;9.714;2023-03-01T16:58:07;11.33;;;8.07;;
10248;SDS011;5169;50.560;9.714;2023-03-01T17:00:35;10.53;;;7.60;;
10248;SDS011;5169;50.560;9.714;2023-03-01T17:03:08;11.43;;;8.10;;
10248;SDS011;5169;50.560;9.714;2023-03-01T17:05:33;13.53;;;8.33;;
10248;SDS011;5169;50.560;9.714;2023-03-01T17:07:59;12.90;;;8.53;;
10248;SDS011;5169;50.560;9.714;2023-03-01T17:10:25;10.97;;;7.37;;
10248;SDS011;5169;50.560;9.714;2023-03-01T17:12:57;13.07;;;8.37;;
10248;SDS011;5169;50.560;9.714;2023-03-01T17:15:24;12.63;;;8.87;;
10248;SDS011;5169;50.560;9.714;2023-03-01T17:17:56;14.20;;;9.07;;
10248;SDS011;5169;50.560;9.714;2023-03-01T17:20:21;12.33;;;8.70;;
10248;SDS011;5169;50.560;9.714;2023-03-01T17:22:49;12.57;;;8.53;;
10248;SDS011;5169;50.560;9.714;2023-03-01T17:25:22;12.67;;;9.03;;
10248;SDS011;5169;50.560;9.714;2023-03-01T17:27:48;13.83;;;8.40;;
10248;SDS011;5169;50.560;9.714;2023-03-01T17:30:14;13.73;;;9.00;;
10248;SDS011;5169;50.560;9.714;2023-03-01T17:32:43;14.27;;;9.20;;
10248;SDS011;5169;50.560;9.714;2023-03-01T17:35:09;13.27;;;8.60;;
10248;SDS011;5169;50.560;9.714;2023-03-01T17:37:38;12.13;;;8.47;;
10248;SDS011;5169;50.560;9.714;2023-03-01T17:40:10;15.07;;;8.60;;
10248;SDS011;5169;50.560;9.714;2023-03-01T17:42:42;14.20;;;9.17;;
10248;SDS011;5169;50.560;9.714;2023-03-01T17:45:08;12.80;;;9.20;;
10248;SDS011;5169;50.560;9.714;2023-03-01T17:47:44;11.83;;;8.63;;
10248;SDS011;5169;50.560;9.714;2023-03-01T17:50:10;15.53;;;8.70;;
10248;SDS011;5169;50.560;9.714;2023-03-01T17:52:38;14.90;;;9.60;;
10248;SDS011;5169;50.560;9.714;2023-03-01T17:55:05;14.67;;;9.40;;